Aérodrome :
LOGIN :

S'inscrire | Disclaimer

   EN    FR    IT 

 










Légende :    VFR   VFR Marginal   IFR   IFR Intensif   IFR Très Intensif
Visi : 
Plafond : 
>= 8 km
>= 3000ft
5 à 8 km
1000 à 3000 ft
1500m à 5 km
500 à 1000 ft
800 à 1500m
200 à 500 ft
< 800m
< 200 ft
Symboles :   Orages  Brouillard  Fortes neiges  Fortes précipitations  Vent > 20 kt
SIGMETs :   Divers  Orages  Givrage  Turbulence  Onde Orograph.  Cendres Volcan.






- Altitude de l'aérodrome : 1325 ft
- Code IATA : EBU


LFMH - St-Etienne Boutheon

DERNIER METAR :
  • 070230Z AUTO VRB02KT CAVOK 07/05 Q1021 NOSIG

METARs EXPIRÉS :
  • 070200Z AUTO 00000KT CAVOK 08/05 Q1021
  • 070130Z AUTO VRB01KT CAVOK 09/06 Q1021
  • 070100Z AUTO VRB02KT CAVOK 09/06 Q1021
  • 070030Z AUTO 00000KT CAVOK 11/07 Q1022

TAF TAF LFMH
Valide du 07 à 03h jusqu'au 08 à 03h UTC


070200Z 0703/0803 VRB03KT CAVOK
BECMG 0705/0707 34008KT
BECMG 0720/0722 VRB02KT
ATIS : +33 4 77 36 17 51



MET'MAP, la Météo Aéronautique d'un coup d'oeil ! - Copyright ORBIFLY Décembre 2007 - Disclaimer

ORBIFLY MET'MAP TEAM :

Programmation & Développement : Alexandra Zaïnal
Sur une idée originale de : Baudouin d'Aumeries
Assistance à la programmation : Marc-Olivier Méhu
Soutien technique & logistique : Manuel Goepfert

Contact : metmap@orbifly.com




SOURCES & CREDITS :

   NOAA